createdAt,value
2018-11-03T00:02:00.402Z,7.13
2018-11-03T00:04:29.232Z,6.90
2018-11-03T00:06:58.103Z,6.03
2018-11-03T00:09:27.263Z,5.67
2018-11-03T00:11:56.190Z,7.67
2018-11-03T00:14:24.939Z,7.23
2018-11-03T00:16:53.964Z,6.20
2018-11-03T00:19:22.760Z,6.80
2018-11-03T00:21:51.966Z,7.20
2018-11-03T00:24:20.919Z,7.10
2018-11-03T00:26:49.664Z,8.20
2018-11-03T00:29:18.635Z,7.40
2018-11-03T00:31:47.580Z,6.73
2018-11-03T00:34:16.803Z,5.90
2018-11-03T00:36:45.464Z,5.53
2018-11-03T00:39:14.515Z,5.50
2018-11-03T00:41:43.434Z,6.13
2018-11-03T00:44:12.390Z,6.27
2018-11-03T00:46:41.260Z,5.67
2018-11-03T00:49:09.961Z,6.60
2018-11-03T00:51:41.931Z,5.97
2018-11-03T00:54:10.553Z,6.53
2018-11-03T00:56:39.189Z,6.63
2018-11-03T00:59:08.190Z,6.70
2018-11-03T01:01:36.938Z,5.57
2018-11-03T01:04:06.020Z,4.83
2018-11-03T01:06:34.579Z,5.17
2018-11-03T01:09:03.339Z,5.37
2018-11-03T01:11:32.178Z,6.00
2018-11-03T01:14:01.322Z,5.20
2018-11-03T01:16:30.202Z,5.20
2018-11-03T01:18:58.794Z,5.07
2018-11-03T01:21:27.949Z,4.40
2018-11-03T01:23:57.050Z,4.47
2018-11-03T01:26:25.973Z,4.20
2018-11-03T01:28:54.973Z,4.20
2018-11-03T01:31:24.150Z,4.07
2018-11-03T01:33:52.770Z,4.63
2018-11-03T01:36:21.520Z,4.53
2018-11-03T01:38:50.329Z,3.73
2018-11-03T01:41:19.342Z,5.57
2018-11-03T01:43:47.987Z,5.13
2018-11-03T01:46:17.010Z,4.53
2018-11-03T01:48:45.908Z,4.40
2018-11-03T01:51:14.734Z,4.63
2018-11-03T01:53:43.640Z,5.03
2018-11-03T01:56:12.215Z,5.20
2018-11-03T01:58:40.950Z,5.20
2018-11-03T02:01:09.618Z,4.70
2018-11-03T02:03:38.615Z,4.90
2018-11-03T02:06:07.505Z,4.60
2018-11-03T02:08:36.358Z,5.00
2018-11-03T02:11:05.260Z,4.93
2018-11-03T02:13:33.895Z,4.53
2018-11-03T02:16:02.719Z,5.57
2018-11-03T02:18:31.555Z,5.70
2018-11-03T02:21:00.149Z,6.17
2018-11-03T02:23:28.721Z,6.17
2018-11-03T02:25:57.390Z,5.97
2018-11-03T02:28:26.135Z,6.17
2018-11-03T02:30:54.780Z,5.80
2018-11-03T02:33:23.566Z,6.40
2018-11-03T02:35:52.238Z,5.83
2018-11-03T02:38:20.968Z,6.07
2018-11-03T02:40:49.745Z,6.40
2018-11-03T02:43:18.735Z,5.93
2018-11-03T02:45:47.369Z,5.87
2018-11-03T02:48:16.202Z,6.67
2018-11-03T02:50:44.987Z,5.43
2018-11-03T02:53:14.136Z,5.30
2018-11-03T02:55:42.771Z,5.27
2018-11-03T02:58:11.529Z,5.50
2018-11-03T03:00:40.602Z,5.07
2018-11-03T03:03:09.454Z,6.13
2018-11-03T03:05:38.382Z,6.90
2018-11-03T03:08:07.303Z,6.60
2018-11-03T03:10:36.028Z,7.07
2018-11-03T03:13:05.017Z,7.03
2018-11-03T03:15:33.907Z,8.57
2018-11-03T03:18:02.821Z,7.90
2018-11-03T03:20:31.769Z,8.97
2018-11-03T03:23:00.368Z,8.50
2018-11-03T03:25:29.166Z,8.97
2018-11-03T03:27:58.028Z,9.10
2018-11-03T03:30:26.928Z,9.10
2018-11-03T03:32:55.580Z,9.43
2018-11-03T03:35:24.421Z,9.23
2018-11-03T03:37:53.248Z,9.37
2018-11-03T03:40:21.969Z,10.17
2018-11-03T03:42:51.022Z,10.10
2018-11-03T03:45:19.803Z,9.83
2018-11-03T03:47:48.475Z,11.07
2018-11-03T03:50:17.152Z,11.17
2018-11-03T03:52:46.380Z,10.30
2018-11-03T03:55:14.996Z,10.70
2018-11-03T03:57:43.921Z,10.40
2018-11-03T04:00:13.109Z,9.93
2018-11-03T04:02:42.066Z,9.63
2018-11-03T04:05:10.956Z,11.13
2018-11-03T04:07:39.815Z,11.30
2018-11-03T04:10:09.391Z,11.53
2018-11-03T04:12:38.332Z,11.73
2018-11-03T04:15:07.545Z,12.07
2018-11-03T04:17:36.490Z,11.07
2018-11-03T04:20:06.260Z,10.63
2018-11-03T04:22:35.108Z,9.57
2018-11-03T04:25:04.181Z,10.23
2018-11-03T04:27:32.859Z,10.73
2018-11-03T04:30:01.576Z,10.00
2018-11-03T04:32:30.419Z,9.80
2018-11-03T04:34:59.313Z,10.33
2018-11-03T04:37:28.416Z,9.97
2018-11-03T04:39:57.184Z,9.17
2018-11-03T04:42:26.016Z,9.67
2018-11-03T04:44:54.705Z,9.17
2018-11-03T04:47:23.735Z,9.87
2018-11-03T04:49:52.642Z,9.17
2018-11-03T04:52:21.583Z,9.50
2018-11-03T04:54:50.559Z,9.90
2018-11-03T04:57:19.289Z,9.90
2018-11-03T04:59:48.048Z,9.97
2018-11-03T05:02:16.822Z,10.80
2018-11-03T05:04:45.760Z,10.10
2018-11-03T05:07:14.701Z,10.43
2018-11-03T05:09:43.846Z,10.10
2018-11-03T05:12:13.035Z,10.17
2018-11-03T05:14:41.931Z,9.17
2018-11-03T05:17:10.793Z,8.40
2018-11-03T05:19:39.413Z,9.10
2018-11-03T05:22:08.138Z,9.70
2018-11-03T05:24:37.096Z,9.93
2018-11-03T05:27:05.764Z,10.33
2018-11-03T05:29:34.460Z,9.23
2018-11-03T05:32:03.476Z,9.60
2018-11-03T05:34:33.155Z,9.30
2018-11-03T05:37:01.930Z,10.87
2018-11-03T05:39:30.795Z,11.33
2018-11-03T05:41:59.879Z,11.50
2018-11-03T05:44:28.606Z,10.30
2018-11-03T05:46:57.549Z,10.00
2018-11-03T05:49:26.341Z,9.33
2018-11-03T05:51:55.296Z,10.40
2018-11-03T05:54:24.670Z,11.27
2018-11-03T05:56:53.669Z,10.57
2018-11-03T05:59:22.722Z,10.57
2018-11-03T06:01:51.519Z,11.10
2018-11-03T06:04:20.501Z,10.63
2018-11-03T06:06:49.337Z,10.70
2018-11-03T06:09:17.969Z,10.63
2018-11-03T06:11:46.710Z,9.57
2018-11-03T06:14:15.420Z,9.57
2018-11-03T06:16:44.251Z,9.70
2018-11-03T06:19:12.976Z,10.57
2018-11-03T06:21:41.913Z,9.27
2018-11-03T06:24:10.571Z,11.03
2018-11-03T06:26:39.613Z,11.03
2018-11-03T06:29:08.399Z,10.40
2018-11-03T06:31:37.125Z,10.03
2018-11-03T06:34:05.949Z,11.23
2018-11-03T06:36:34.721Z,9.63
2018-11-03T06:39:03.759Z,10.10
2018-11-03T06:41:32.334Z,10.00
2018-11-03T06:44:01.361Z,9.33
2018-11-03T06:46:30.417Z,10.93
2018-11-03T06:49:04.522Z,9.30
2018-11-03T06:51:33.189Z,9.57
2018-11-03T06:54:03.018Z,10.60
2018-11-03T06:56:32.802Z,10.90
2018-11-03T06:59:01.434Z,10.97
2018-11-03T07:01:30.269Z,10.37
2018-11-03T07:03:59.400Z,9.60
2018-11-03T07:06:28.031Z,10.20
2018-11-03T07:08:56.671Z,10.90
2018-11-03T07:11:25.684Z,10.33
2018-11-03T07:13:54.716Z,10.87
2018-11-03T07:16:23.414Z,10.47
2018-11-03T07:18:52.420Z,10.63
2018-11-03T07:21:21.079Z,10.87
2018-11-03T07:23:49.970Z,11.63
2018-11-03T07:26:18.908Z,13.43
2018-11-03T07:28:47.839Z,13.17
2018-11-03T07:31:16.869Z,12.17
2018-11-03T07:33:45.599Z,12.47
2018-11-03T07:36:14.512Z,14.13
2018-11-03T07:38:43.601Z,20.80
2018-11-03T07:41:12.879Z,17.43
2018-11-03T07:43:41.541Z,16.77
2018-11-03T07:46:10.405Z,15.77
2018-11-03T07:48:39.313Z,13.90
2018-11-03T07:51:08.186Z,13.17
2018-11-03T07:53:36.985Z,12.97
2018-11-03T07:56:06.150Z,13.40
2018-11-03T07:58:35.190Z,12.40
2018-11-03T08:01:04.115Z,13.40
2018-11-03T08:03:32.973Z,13.90
2018-11-03T08:06:01.876Z,13.70
2018-11-03T08:08:30.791Z,14.93
2018-11-03T08:10:59.498Z,13.50
2018-11-03T08:13:28.405Z,17.90
2018-11-03T08:15:57.480Z,34.40
2018-11-03T08:18:26.375Z,20.53
2018-11-03T08:20:55.209Z,18.17
2018-11-03T08:23:24.205Z,16.67
2018-11-03T08:25:53.073Z,15.63
2018-11-03T08:28:21.811Z,15.30
2018-11-03T08:30:50.740Z,14.07
2018-11-03T08:33:19.961Z,12.67
2018-11-03T08:35:48.749Z,12.37
2018-11-03T08:38:17.514Z,12.43
2018-11-03T08:40:46.436Z,11.93
2018-11-03T08:43:15.196Z,11.40
2018-11-03T08:45:44.126Z,9.77
2018-11-03T08:48:13.167Z,9.03
2018-11-03T08:50:42.222Z,9.23
2018-11-03T08:53:11.074Z,8.73
2018-11-03T08:55:39.954Z,8.87
2018-11-03T08:58:08.735Z,8.97
2018-11-03T09:00:37.690Z,7.30
2018-11-03T09:03:06.458Z,8.57
2018-11-03T09:05:35.254Z,7.90
2018-11-03T09:08:04.239Z,8.00
2018-11-03T09:10:33.144Z,7.93
2018-11-03T09:13:01.805Z,7.37
2018-11-03T09:15:30.725Z,6.53
2018-11-03T09:17:59.486Z,8.33
2018-11-03T09:20:28.137Z,6.57
2018-11-03T09:22:56.900Z,6.43
2018-11-03T09:25:25.826Z,11.57
2018-11-03T09:27:54.724Z,12.80
2018-11-03T09:30:23.380Z,15.07
2018-11-03T09:32:52.554Z,8.40
2018-11-03T09:35:21.585Z,8.60
2018-11-03T09:37:50.286Z,6.60
2018-11-03T09:40:19.330Z,7.47
2018-11-03T09:42:49.253Z,7.03
2018-11-03T09:45:17.924Z,8.10
2018-11-03T09:47:46.941Z,6.97
2018-11-03T09:50:16.354Z,10.20
2018-11-03T09:52:45.480Z,6.30
2018-11-03T09:55:16.111Z,6.70
2018-11-03T09:57:45.331Z,8.83
2018-11-03T10:00:17.469Z,5.00
2018-11-03T10:02:46.376Z,4.70
2018-11-03T10:05:15.794Z,4.57
2018-11-03T10:07:44.576Z,4.77
2018-11-03T10:10:14.904Z,5.40
2018-11-03T10:12:43.934Z,4.80
2018-11-03T10:15:14.321Z,4.70
2018-11-03T10:17:43.641Z,4.17
2018-11-03T10:20:12.701Z,4.50
2018-11-03T10:22:41.913Z,4.53
2018-11-03T10:25:14.298Z,4.03
2018-11-03T10:27:43.829Z,4.53
2018-11-03T10:30:13.666Z,4.60
2018-11-03T10:32:42.725Z,3.20
2018-11-03T10:35:12.537Z,4.37
2018-11-03T10:37:41.826Z,4.50
2018-11-03T10:40:13.146Z,4.03
2018-11-03T10:42:42.370Z,3.13
2018-11-03T10:45:12.449Z,3.97
2018-11-03T10:47:42.213Z,3.77
2018-11-03T10:50:15.960Z,4.37
2018-11-03T10:52:45.304Z,4.20
2018-11-03T10:55:15.739Z,4.80
2018-11-03T10:57:44.603Z,6.17
2018-11-03T11:00:21.075Z,6.60
2018-11-03T11:02:55.055Z,6.73
2018-11-03T11:05:29.136Z,4.40
2018-11-03T11:08:02.950Z,4.57
2018-11-03T11:10:37.034Z,4.30
2018-11-03T11:13:09.211Z,5.00
2018-11-03T11:15:38.116Z,4.40
2018-11-03T11:18:06.885Z,3.60
2018-11-03T11:20:35.676Z,3.87
2018-11-03T11:23:04.313Z,5.97
2018-11-03T11:25:33.296Z,4.00
2018-11-03T11:28:02.260Z,3.72
2018-11-03T11:30:35.870Z,3.85
2018-11-03T11:33:05.820Z,3.33
2018-11-03T11:35:35.015Z,3.20
2018-11-03T11:38:03.966Z,3.62
2018-11-03T11:40:32.885Z,3.35
2018-11-03T11:43:01.834Z,3.80
2018-11-03T11:45:30.704Z,3.12
2018-11-03T11:47:59.792Z,3.22
2018-11-03T11:50:28.755Z,2.72
2018-11-03T11:52:57.511Z,2.40
2018-11-03T11:55:26.474Z,2.30
2018-11-03T11:57:55.360Z,1.92
2018-11-03T12:00:24.203Z,1.72
2018-11-03T12:02:53.112Z,1.85
2018-11-03T12:05:21.846Z,2.00
2018-11-03T12:07:50.649Z,1.60
2018-11-03T12:10:19.666Z,1.70
2018-11-03T12:12:48.567Z,1.72
2018-11-03T12:15:17.985Z,1.70
2018-11-03T12:17:47.015Z,1.80
2018-11-03T12:20:16.202Z,1.67
2018-11-03T12:22:45.197Z,1.85
2018-11-03T12:25:14.040Z,1.80
2018-11-03T12:27:42.850Z,1.62
2018-11-03T12:30:13.945Z,1.80
2018-11-03T12:32:42.820Z,1.50
2018-11-03T12:35:11.833Z,2.20
2018-11-03T12:37:40.918Z,1.72
2018-11-03T12:40:12.146Z,2.02
2018-11-03T12:42:41.211Z,2.10
2018-11-03T12:45:10.636Z,2.00
2018-11-03T12:47:39.818Z,1.90
2018-11-03T12:50:13.876Z,1.77
2018-11-03T12:52:42.901Z,1.80
2018-11-03T12:55:11.865Z,1.65
2018-11-03T12:57:41.806Z,1.80
2018-11-03T13:00:13.015Z,1.70
2018-11-03T13:02:42.850Z,1.60
2018-11-03T13:05:11.714Z,1.62
2018-11-03T13:07:42.007Z,1.80
2018-11-03T13:10:11.491Z,1.40
2018-11-03T13:12:40.943Z,1.72
2018-11-03T13:15:10.939Z,1.50
2018-11-03T13:17:40.010Z,1.60
2018-11-03T13:20:10.816Z,1.25
2018-11-03T13:22:40.097Z,1.60
2018-11-03T13:25:09.507Z,1.40
2018-11-03T13:27:38.565Z,1.20
2018-11-03T13:30:09.082Z,1.07
2018-11-03T13:32:38.386Z,1.12
2018-11-03T13:35:08.105Z,1.22
2018-11-03T13:37:36.914Z,1.15
2018-11-03T13:40:06.192Z,1.30
2018-11-03T13:42:35.065Z,1.20
2018-11-03T13:45:03.877Z,1.05
2018-11-03T13:47:32.817Z,0.95
2018-11-03T13:50:01.645Z,0.80
2018-11-03T13:52:30.521Z,0.80
2018-11-03T13:54:59.295Z,0.90
2018-11-03T13:57:28.175Z,0.90
2018-11-03T13:59:57.061Z,1.20
2018-11-03T14:02:26.045Z,1.10
2018-11-03T14:04:54.704Z,0.60
2018-11-03T14:07:23.513Z,0.47
2018-11-03T14:09:52.412Z,0.70
2018-11-03T14:12:21.232Z,0.80
2018-11-03T14:14:50.342Z,0.65
2018-11-03T14:17:19.032Z,2.02
2018-11-03T14:19:47.716Z,1.02
2018-11-03T14:22:16.406Z,1.22
2018-11-03T14:24:45.270Z,1.02
2018-11-03T14:27:14.207Z,1.00
2018-11-03T14:29:43.266Z,1.27
2018-11-03T14:32:12.331Z,2.00
2018-11-03T14:34:41.253Z,1.42
2018-11-03T14:37:10.161Z,1.80
2018-11-03T14:39:39.169Z,1.65
2018-11-03T14:42:08.083Z,1.15
2018-11-03T14:44:37.074Z,1.60
2018-11-03T14:47:05.746Z,1.70
2018-11-03T14:49:34.793Z,1.75
2018-11-03T14:52:03.758Z,2.43
2018-11-03T14:54:32.387Z,2.10
2018-11-03T14:57:01.009Z,2.50
2018-11-03T14:59:30.095Z,2.60
2018-11-03T15:01:58.837Z,3.60
2018-11-03T15:04:27.700Z,3.00
2018-11-03T15:06:56.639Z,1.97
2018-11-03T15:09:25.566Z,1.03
2018-11-03T15:11:54.418Z,1.10
2018-11-03T15:14:23.340Z,1.30
2018-11-03T15:16:51.881Z,1.37
2018-11-03T15:19:20.825Z,1.33
2018-11-03T15:21:49.706Z,1.60
2018-11-03T15:24:22.671Z,1.30
2018-11-03T15:26:51.616Z,1.60
2018-11-03T15:29:20.389Z,1.50
2018-11-03T15:31:49.190Z,4.53
2018-11-03T15:34:18.101Z,3.20
2018-11-03T15:36:46.865Z,2.53
2018-11-03T15:39:15.772Z,2.93
2018-11-03T15:41:45.160Z,3.00
2018-11-03T15:44:14.294Z,2.33
2018-11-03T15:46:43.500Z,2.40
2018-11-03T15:49:12.685Z,2.80
2018-11-03T15:51:41.692Z,2.70
2018-11-03T15:54:10.760Z,3.30
2018-11-03T15:56:39.652Z,2.77
2018-11-03T15:59:08.595Z,2.60
2018-11-03T16:01:37.481Z,2.80
2018-11-03T16:04:06.140Z,2.70
2018-11-03T16:06:35.209Z,3.37
2018-11-03T16:09:04.918Z,5.17
2018-11-03T16:11:33.805Z,4.40
2018-11-03T16:14:02.901Z,4.57
2018-11-03T16:16:31.745Z,4.33
2018-11-03T16:19:00.484Z,4.97
2018-11-03T16:21:29.568Z,6.60
2018-11-03T16:23:58.507Z,6.93
2018-11-03T16:26:27.107Z,4.93
2018-11-03T16:28:56.021Z,4.47
2018-11-03T16:31:24.856Z,4.53
2018-11-03T16:33:53.778Z,4.33
2018-11-03T16:36:22.690Z,5.33
2018-11-03T16:38:51.478Z,4.73
2018-11-03T16:41:20.554Z,5.47
2018-11-03T16:43:49.741Z,4.30
2018-11-03T16:46:18.604Z,4.23
2018-11-03T16:48:47.292Z,4.47
2018-11-03T16:51:16.181Z,4.50
2018-11-03T16:53:45.036Z,5.23
2018-11-03T16:56:13.806Z,6.77
2018-11-03T16:58:43.109Z,5.27
2018-11-03T17:01:11.785Z,5.80
2018-11-03T17:03:40.681Z,5.70
2018-11-03T17:06:09.372Z,5.03
2018-11-03T17:08:38.016Z,4.83
2018-11-03T17:11:06.741Z,5.03
2018-11-03T17:13:35.756Z,6.37
2018-11-03T17:16:04.619Z,5.50
2018-11-03T17:18:33.519Z,5.07
2018-11-03T17:21:02.238Z,6.43
2018-11-03T17:23:31.509Z,7.60
2018-11-03T17:26:00.396Z,6.97
2018-11-03T17:28:29.301Z,7.33
2018-11-03T17:30:57.890Z,6.87
2018-11-03T17:33:26.995Z,6.30
2018-11-03T17:35:56.020Z,7.43
2018-11-03T17:38:24.920Z,7.57
2018-11-03T17:40:53.948Z,6.73
2018-11-03T17:43:23.152Z,7.67
2018-11-03T17:45:52.016Z,8.70
2018-11-03T17:48:20.631Z,9.23
2018-11-03T17:50:49.420Z,6.90
2018-11-03T17:53:18.197Z,7.07
2018-11-03T17:55:46.891Z,6.67
2018-11-03T17:58:15.769Z,6.67
2018-11-03T18:00:44.851Z,6.40
2018-11-03T18:03:13.742Z,6.87
2018-11-03T18:05:42.593Z,6.77
2018-11-03T18:08:11.592Z,6.57
2018-11-03T18:10:40.469Z,6.80
2018-11-03T18:13:09.361Z,6.83
2018-11-03T18:15:38.037Z,6.87
2018-11-03T18:18:07.042Z,8.33
2018-11-03T18:20:35.715Z,10.03
2018-11-03T18:23:04.831Z,10.77
2018-11-03T18:25:33.741Z,11.37
2018-11-03T18:28:02.652Z,10.27
2018-11-03T18:30:31.711Z,10.03
2018-11-03T18:33:00.568Z,9.83
2018-11-03T18:35:29.398Z,9.37
2018-11-03T18:37:58.541Z,8.47
2018-11-03T18:40:27.582Z,9.73
2018-11-03T18:42:56.632Z,8.97
2018-11-03T18:45:25.492Z,8.17
2018-11-03T18:47:54.222Z,8.00
2018-11-03T18:50:23.038Z,9.73
2018-11-03T18:52:51.933Z,8.80
2018-11-03T18:55:20.894Z,10.30
2018-11-03T18:57:49.652Z,8.90
2018-11-03T19:00:18.506Z,9.67
2018-11-03T19:02:47.120Z,8.90
2018-11-03T19:05:16.097Z,10.23
2018-11-03T19:07:45.003Z,7.80
2018-11-03T19:10:14.130Z,7.83
2018-11-03T19:12:43.020Z,8.63
2018-11-03T19:15:11.818Z,6.93
2018-11-03T19:17:41.104Z,7.97
2018-11-03T19:20:12.528Z,9.23
2018-11-03T19:22:41.612Z,9.60
2018-11-03T19:25:11.848Z,9.27
2018-11-03T19:27:41.191Z,11.30
2018-11-03T19:30:11.466Z,10.57
2018-11-03T19:32:41.632Z,10.40
2018-11-03T19:35:10.755Z,9.20
2018-11-03T19:37:40.155Z,8.50
2018-11-03T19:40:10.236Z,9.33
2018-11-03T19:42:39.697Z,9.60
2018-11-03T19:45:08.846Z,9.37
2018-11-03T19:47:37.873Z,10.03
2018-11-03T19:50:07.656Z,10.50
2018-11-03T19:52:36.532Z,10.73
2018-11-03T19:55:05.532Z,9.60
2018-11-03T19:57:34.548Z,9.70
2018-11-03T20:00:03.627Z,9.20
2018-11-03T20:02:32.970Z,8.60
2018-11-03T20:05:01.914Z,9.40
2018-11-03T20:07:31.173Z,10.30
2018-11-03T20:10:00.107Z,10.77
2018-11-03T20:12:29.214Z,10.67
2018-11-03T20:14:58.049Z,11.67
2018-11-03T20:17:27.030Z,10.83
2018-11-03T20:19:56.386Z,10.77
2018-11-03T20:22:25.255Z,9.80
2018-11-03T20:24:54.322Z,11.40
2018-11-03T20:27:23.199Z,14.40
2018-11-03T20:29:52.401Z,15.60
2018-11-03T20:32:21.479Z,15.20
2018-11-03T20:34:50.356Z,14.73
2018-11-03T20:37:19.029Z,12.43
2018-11-03T20:39:48.063Z,13.40
2018-11-03T20:42:16.880Z,12.63
2018-11-03T20:44:46.147Z,12.47
2018-11-03T20:47:14.851Z,15.97
2018-11-03T20:49:43.795Z,14.30
2018-11-03T20:52:12.867Z,11.60
2018-11-03T20:54:41.757Z,11.47
2018-11-03T20:57:10.743Z,11.23
2018-11-03T20:59:39.617Z,13.17
2018-11-03T21:02:08.709Z,16.50
2018-11-03T21:04:37.686Z,17.47
2018-11-03T21:07:06.641Z,16.93
2018-11-03T21:09:35.441Z,18.93
2018-11-03T21:12:04.193Z,18.97
2018-11-03T21:14:32.907Z,12.87
2018-11-03T21:17:01.802Z,15.13
2018-11-03T21:19:30.831Z,12.97
2018-11-03T21:22:00.212Z,12.37
2018-11-03T21:24:28.946Z,11.30
2018-11-03T21:26:57.836Z,11.53
2018-11-03T21:29:26.806Z,11.03
2018-11-03T21:31:55.670Z,10.70
2018-11-03T21:34:24.302Z,12.27
2018-11-03T21:36:52.981Z,12.00
2018-11-03T21:39:21.642Z,11.20
2018-11-03T21:41:50.410Z,12.43
2018-11-03T21:44:19.274Z,11.50
2018-11-03T21:46:48.048Z,10.60
2018-11-03T21:49:16.820Z,11.33
2018-11-03T21:51:45.927Z,11.77
2018-11-03T21:54:14.963Z,12.10
2018-11-03T21:56:44.173Z,11.33
2018-11-03T21:59:13.062Z,12.30
2018-11-03T22:01:41.909Z,10.97
2018-11-03T22:04:10.816Z,12.67
2018-11-03T22:06:40.129Z,11.67
2018-11-03T22:09:11.082Z,12.23
2018-11-03T22:11:40.223Z,12.70
2018-11-03T22:14:09.150Z,12.70
2018-11-03T22:16:38.021Z,12.50
2018-11-03T22:19:07.205Z,11.40
2018-11-03T22:21:36.177Z,11.10
2018-11-03T22:24:05.248Z,11.03
2018-11-03T22:26:34.202Z,10.50
2018-11-03T22:29:03.071Z,11.07
2018-11-03T22:31:32.012Z,10.97
2018-11-03T22:34:00.938Z,11.13
2018-11-03T22:36:30.007Z,10.23
2018-11-03T22:38:59.541Z,13.77
2018-11-03T22:41:28.414Z,10.90
2018-11-03T22:43:57.361Z,14.50
2018-11-03T22:46:26.605Z,14.67
2018-11-03T22:48:55.372Z,14.30
2018-11-03T22:51:24.212Z,14.27
2018-11-03T22:53:52.879Z,13.13
2018-11-03T22:56:21.750Z,14.60
2018-11-03T22:58:50.576Z,14.27
2018-11-03T23:01:19.540Z,13.20
2018-11-03T23:03:48.380Z,14.63
2018-11-03T23:06:17.188Z,13.63
2018-11-03T23:08:46.013Z,13.03
2018-11-03T23:11:15.007Z,14.23
2018-11-03T23:13:43.649Z,14.40
2018-11-03T23:16:12.432Z,14.70
2018-11-03T23:18:41.070Z,14.90
2018-11-03T23:21:10.176Z,15.87
2018-11-03T23:23:39.175Z,16.13
2018-11-03T23:26:07.772Z,15.93
2018-11-03T23:28:36.557Z,14.43
2018-11-03T23:31:05.792Z,14.57
2018-11-03T23:33:34.672Z,13.80
2018-11-03T23:36:03.405Z,15.73
2018-11-03T23:38:32.215Z,16.20
2018-11-03T23:41:01.151Z,15.60
2018-11-03T23:43:30.042Z,14.80
2018-11-03T23:45:58.915Z,16.43
2018-11-03T23:48:27.770Z,16.00
2018-11-03T23:50:56.367Z,16.03
2018-11-03T23:53:25.477Z,15.50
2018-11-03T23:55:54.307Z,15.87
2018-11-03T23:58:23.272Z,17.33
